createdAt,value
2022-08-22T00:01:13.022Z,17.89
2022-08-22T00:02:43.199Z,20.65
2022-08-22T00:02:46.133Z,20.60
2022-08-22T00:02:48.245Z,20.71
2022-08-22T00:02:55.977Z,19.59
2022-08-22T00:02:56.966Z,20.43
2022-08-22T00:02:57.968Z,17.98
2022-08-22T00:03:07.476Z,18.43
2022-08-22T00:03:09.777Z,17.83
2022-08-22T00:03:54.657Z,17.95
2022-08-22T00:06:30.536Z,17.98
2022-08-22T00:09:15.280Z,17.95
2022-08-22T00:11:49.529Z,17.92
2022-08-22T00:14:23.625Z,17.93
2022-08-22T00:17:01.576Z,17.90
2022-08-22T00:19:50.345Z,17.97
2022-08-22T00:22:26.707Z,17.96
2022-08-22T00:25:02.169Z,18.04
2022-08-22T00:27:35.957Z,18.06
2022-08-22T00:30:10.341Z,17.97
2022-08-22T00:32:43.671Z,17.92
2022-08-22T00:35:20.926Z,17.92
2022-08-22T00:38:00.380Z,17.95
2022-08-22T00:40:53.634Z,17.91
2022-08-22T00:43:52.598Z,17.85
2022-08-22T00:47:14.053Z,17.84
2022-08-22T00:50:04.717Z,17.75
2022-08-22T00:53:00.517Z,17.77
2022-08-22T00:55:48.206Z,17.76
2022-08-22T00:58:53.032Z,17.81
2022-08-22T01:01:29.831Z,17.90
2022-08-22T01:04:16.191Z,17.96
2022-08-22T01:06:58.698Z,17.93
2022-08-22T01:09:39.644Z,17.96
2022-08-22T01:12:25.874Z,17.92
2022-08-22T01:14:58.536Z,17.90
2022-08-22T01:17:52.571Z,17.96
2022-08-22T01:20:57.299Z,17.86
2022-08-22T01:24:01.915Z,17.89
2022-08-22T01:27:17.935Z,17.96
2022-08-22T01:30:16.469Z,17.89
2022-08-22T01:33:23.280Z,17.91
2022-08-22T01:36:31.137Z,17.89
2022-08-22T01:39:30.554Z,17.86
2022-08-22T01:42:43.522Z,17.87
2022-08-22T01:45:53.797Z,17.91
2022-08-22T01:48:27.369Z,17.85
2022-08-22T01:50:59.461Z,17.88
2022-08-22T01:53:40.703Z,17.85
2022-08-22T01:56:13.448Z,17.84
2022-08-22T01:58:55.028Z,17.84
2022-08-22T02:01:33.974Z,17.89
2022-08-22T02:04:07.496Z,17.93
2022-08-22T02:06:46.282Z,17.92
2022-08-22T02:09:32.973Z,17.88
2022-08-22T02:12:21.846Z,17.93
2022-08-22T02:15:00.665Z,17.88
2022-08-22T02:17:32.555Z,17.89
2022-08-22T02:20:07.957Z,17.93
2022-08-22T02:22:44.631Z,17.84
2022-08-22T02:25:22.783Z,17.79
2022-08-22T02:27:58.940Z,17.87
2022-08-22T02:30:45.059Z,17.91
2022-08-22T02:33:24.090Z,17.91
2022-08-22T02:36:00.349Z,17.84
2022-08-22T02:38:35.019Z,17.84
2022-08-22T02:41:15.781Z,17.77
2022-08-22T02:43:50.663Z,17.70
2022-08-22T02:46:28.380Z,17.64
2022-08-22T02:49:06.535Z,17.54
2022-08-22T02:51:47.426Z,17.54
2022-08-22T02:54:24.721Z,17.50
2022-08-22T02:57:02.080Z,17.48
2022-08-22T02:59:36.676Z,17.38
2022-08-22T03:02:33.577Z,17.32
2022-08-22T03:05:15.671Z,17.24
2022-08-22T03:07:50.299Z,17.24
2022-08-22T03:10:24.115Z,17.16
2022-08-22T03:13:03.835Z,17.14
2022-08-22T03:15:38.246Z,17.18
2022-08-22T03:18:19.759Z,17.16
2022-08-22T03:20:55.595Z,17.17
2022-08-22T03:23:37.853Z,17.18
2022-08-22T03:26:14.548Z,17.14
2022-08-22T03:28:58.923Z,17.15
2022-08-22T03:31:30.080Z,17.13
2022-08-22T03:34:20.369Z,17.11
2022-08-22T03:36:59.052Z,17.09
2022-08-22T03:39:49.870Z,17.09
2022-08-22T03:42:53.477Z,17.07
2022-08-22T03:46:12.128Z,17.03
2022-08-22T03:49:18.320Z,17.04
2022-08-22T03:52:05.096Z,17.04
2022-08-22T03:55:03.498Z,17.00
2022-08-22T03:57:59.147Z,17.10
2022-08-22T04:00:51.996Z,17.09
2022-08-22T04:04:01.466Z,17.04
2022-08-22T04:06:56.378Z,17.08
2022-08-22T04:09:59.656Z,17.00
2022-08-22T04:12:49.652Z,17.10
2022-08-22T04:16:13.090Z,17.09
2022-08-22T04:18:58.725Z,17.20
2022-08-22T04:21:43.178Z,17.16
2022-08-22T04:24:30.824Z,17.25
2022-08-22T04:27:03.537Z,17.34
2022-08-22T04:29:36.889Z,17.35
2022-08-22T04:32:14.009Z,17.39
2022-08-22T04:34:50.032Z,17.45
2022-08-22T04:37:23.423Z,17.52
2022-08-22T04:39:56.962Z,17.64
2022-08-22T04:42:33.675Z,17.75
2022-08-22T04:45:07.020Z,17.83
2022-08-22T04:47:39.185Z,17.85
2022-08-22T04:50:16.993Z,17.94
2022-08-22T04:53:09.180Z,17.99
2022-08-22T04:55:57.075Z,18.05
2022-08-22T04:58:56.654Z,18.21
2022-08-22T05:01:27.632Z,18.21
2022-08-22T05:04:02.394Z,18.33
2022-08-22T05:06:35.291Z,18.28
2022-08-22T05:09:11.861Z,18.28
2022-08-22T05:11:46.201Z,18.49
2022-08-22T05:14:20.013Z,18.60
2022-08-22T05:16:53.387Z,18.62
2022-08-22T05:19:33.392Z,18.50
2022-08-22T05:22:05.458Z,18.54
2022-08-22T05:24:42.251Z,18.65
2022-08-22T05:27:16.556Z,18.58
2022-08-22T05:30:06.982Z,18.51
2022-08-22T05:32:43.695Z,18.57
2022-08-22T05:35:12.431Z,18.60
2022-08-22T05:37:52.433Z,18.57
2022-08-22T05:40:24.679Z,18.72
2022-08-22T05:42:57.351Z,18.69
2022-08-22T05:45:28.417Z,18.69
2022-08-22T05:48:04.290Z,18.73
2022-08-22T05:50:41.226Z,18.78
2022-08-22T05:53:17.317Z,18.72
2022-08-22T05:55:58.999Z,18.99
2022-08-22T05:58:47.645Z,19.00
2022-08-22T06:01:30.207Z,19.04
2022-08-22T06:04:07.548Z,19.21
2022-08-22T06:09:58.522Z,19.40
2022-08-22T06:12:37.906Z,19.47
2022-08-22T06:15:20.992Z,19.58
2022-08-22T06:17:51.844Z,19.70
2022-08-22T06:20:23.263Z,19.78
2022-08-22T06:22:55.730Z,19.63
2022-08-22T06:25:30.050Z,19.69
2022-08-22T06:28:03.027Z,19.85
2022-08-22T06:30:31.885Z,19.59
2022-08-22T06:33:04.732Z,19.80
2022-08-22T06:35:51.031Z,19.85
2022-08-22T06:38:21.882Z,20.00
2022-08-22T06:40:55.846Z,19.81
2022-08-22T06:43:26.132Z,19.49
2022-08-22T06:45:54.870Z,19.70
2022-08-22T06:48:25.227Z,19.77
2022-08-22T06:50:59.153Z,19.89
2022-08-22T06:53:45.957Z,20.02
2022-08-22T06:56:26.576Z,20.17
2022-08-22T06:59:06.489Z,20.28
2022-08-22T07:01:38.856Z,20.47
2022-08-22T07:04:10.266Z,20.60
2022-08-22T07:06:46.480Z,20.77
2022-08-22T07:09:30.097Z,20.88
2022-08-22T07:12:17.299Z,20.84
2022-08-22T07:14:50.914Z,20.79
2022-08-22T07:17:24.869Z,20.95
2022-08-22T07:20:00.782Z,21.08
2022-08-22T07:22:33.120Z,21.04
2022-08-22T07:25:04.845Z,21.13
2022-08-22T07:28:01.353Z,21.30
2022-08-22T07:30:46.042Z,21.53
2022-08-22T07:33:28.759Z,21.70
2022-08-22T07:36:01.660Z,21.74
2022-08-22T07:38:43.154Z,21.75
2022-08-22T07:41:18.026Z,21.83
2022-08-22T07:43:51.985Z,22.02
2022-08-22T07:46:29.935Z,22.06
2022-08-22T07:49:09.628Z,22.14
2022-08-22T07:51:45.893Z,22.16
2022-08-22T07:54:21.420Z,22.21
2022-08-22T07:57:00.402Z,22.20
2022-08-22T07:59:34.474Z,22.35
2022-08-22T08:02:06.201Z,22.27
2022-08-22T08:04:40.438Z,22.21
2022-08-22T08:07:11.993Z,22.23
2022-08-22T08:09:44.591Z,22.20
2022-08-22T08:12:14.083Z,22.39
2022-08-22T08:14:48.031Z,22.53
2022-08-22T08:17:21.764Z,22.65
2022-08-22T08:19:54.474Z,22.73
2022-08-22T08:22:26.735Z,22.88
2022-08-22T08:24:57.577Z,23.03
2022-08-22T08:27:50.309Z,23.07
2022-08-22T08:30:36.826Z,23.29
2022-08-22T08:33:25.528Z,23.45
2022-08-22T08:36:03.383Z,23.58
2022-08-22T08:38:37.828Z,23.69
2022-08-22T08:41:40.600Z,23.87
2022-08-22T08:44:21.862Z,23.89
2022-08-22T08:47:16.995Z,23.81
2022-08-22T08:50:11.756Z,23.95
2022-08-22T08:53:07.922Z,23.84
2022-08-22T08:55:48.075Z,23.90
2022-08-22T08:58:34.670Z,24.04
2022-08-22T09:01:27.453Z,24.10
2022-08-22T09:04:23.006Z,24.25
2022-08-22T09:07:25.770Z,24.48
2022-08-22T09:10:16.694Z,24.70
2022-08-22T09:13:12.988Z,24.90
2022-08-22T09:16:10.121Z,24.88
2022-08-22T09:19:18.669Z,24.80
2022-08-22T09:22:25.100Z,24.70
2022-08-22T09:25:18.595Z,24.84
2022-08-22T09:27:55.358Z,25.02
2022-08-22T09:30:28.872Z,25.05
2022-08-22T09:33:01.429Z,25.27
2022-08-22T09:35:50.256Z,25.46
2022-08-22T09:38:34.571Z,25.45
2022-08-22T09:41:16.122Z,25.55
2022-08-22T09:43:49.314Z,25.57
2022-08-22T09:46:31.452Z,25.84
2022-08-22T09:49:12.469Z,25.95
2022-08-22T09:51:46.355Z,25.85
2022-08-22T09:54:36.863Z,25.95
2022-08-22T09:57:23.098Z,26.16
2022-08-22T10:00:15.018Z,26.21
2022-08-22T10:02:53.424Z,25.83
2022-08-22T10:05:40.495Z,26.00
2022-08-22T10:08:29.830Z,26.05
2022-08-22T10:11:24.643Z,26.04
2022-08-22T10:14:00.687Z,25.82
2022-08-22T10:20:07.383Z,25.37
2022-08-22T10:22:46.093Z,25.36
2022-08-22T10:25:33.250Z,25.61
2022-08-22T10:28:17.347Z,25.87
2022-08-22T10:31:08.636Z,26.08
2022-08-22T10:33:44.486Z,26.15
2022-08-22T10:36:26.224Z,26.00
2022-08-22T10:38:58.322Z,26.15
2022-08-22T10:41:37.161Z,25.94
2022-08-22T10:44:17.446Z,25.81
2022-08-22T10:47:08.047Z,25.73
2022-08-22T10:49:43.657Z,25.79
2022-08-22T10:52:33.127Z,25.99
2022-08-22T10:55:10.090Z,26.35
2022-08-22T10:57:56.416Z,26.91
2022-08-22T11:00:46.430Z,27.79
2022-08-22T11:03:25.610Z,28.75
2022-08-22T11:05:56.549Z,29.15
2022-08-22T11:08:58.017Z,29.18
2022-08-22T11:11:41.034Z,28.92
2022-08-22T11:14:38.080Z,29.21
2022-08-22T11:17:29.930Z,29.60
2022-08-22T11:20:15.592Z,29.50
2022-08-22T11:22:59.947Z,29.49
2022-08-22T11:25:54.152Z,29.34
2022-08-22T11:29:13.471Z,28.81
2022-08-22T11:31:52.284Z,28.82
2022-08-22T11:34:34.502Z,28.82
2022-08-22T11:37:11.073Z,28.55
2022-08-22T11:39:47.141Z,28.25
2022-08-22T11:42:25.959Z,28.25
2022-08-22T11:45:01.314Z,27.92
2022-08-22T11:47:37.050Z,27.50
2022-08-22T11:50:21.901Z,27.34
2022-08-22T11:53:23.682Z,27.00
2022-08-22T11:56:05.450Z,27.20
2022-08-22T11:58:46.602Z,27.65
2022-08-22T12:01:18.755Z,27.99
2022-08-22T12:04:03.467Z,28.05
2022-08-22T12:06:49.769Z,26.85
2022-08-22T12:09:47.903Z,27.00
2022-08-22T12:12:25.574Z,27.15
2022-08-22T12:15:10.861Z,26.62
2022-08-22T12:18:36.385Z,26.95
2022-08-22T12:21:38.555Z,26.82
2022-08-22T12:24:26.273Z,26.76
2022-08-22T12:27:33.240Z,26.64
2022-08-22T12:30:35.129Z,26.54
2022-08-22T12:33:41.661Z,26.42
2022-08-22T12:36:35.341Z,26.01
2022-08-22T12:39:49.138Z,25.60
2022-08-22T12:42:44.540Z,25.68
2022-08-22T12:45:28.870Z,25.75
2022-08-22T12:48:10.592Z,25.83
2022-08-22T12:51:03.303Z,25.74
2022-08-22T12:54:42.860Z,25.74
2022-08-22T12:57:23.813Z,25.67
2022-08-22T12:59:58.129Z,25.61
2022-08-22T13:02:44.153Z,25.33
2022-08-22T13:05:19.856Z,25.33
2022-08-22T13:08:04.556Z,25.47
2022-08-22T13:10:47.000Z,25.26
2022-08-22T13:13:31.605Z,25.06
2022-08-22T13:16:11.730Z,24.85
2022-08-22T13:18:53.714Z,24.78
2022-08-22T13:21:33.314Z,24.61
2022-08-22T13:24:16.899Z,24.80
2022-08-22T13:26:57.719Z,24.87
2022-08-22T13:29:45.418Z,24.63
2022-08-22T13:32:27.726Z,24.69
2022-08-22T13:35:00.181Z,24.59
2022-08-22T13:37:33.797Z,24.48
2022-08-22T13:40:30.555Z,24.24
2022-08-22T13:43:08.435Z,24.03
2022-08-22T13:45:38.225Z,23.90
2022-08-22T13:48:11.740Z,23.74
2022-08-22T13:51:04.832Z,23.20
2022-08-22T13:53:42.390Z,22.31
2022-08-22T13:56:26.348Z,21.04
2022-08-22T13:59:00.034Z,20.49
2022-08-22T14:01:41.853Z,20.26
2022-08-22T14:04:28.718Z,20.11
2022-08-22T14:07:25.518Z,20.05
2022-08-22T14:09:58.216Z,20.06
2022-08-22T14:12:33.519Z,20.08
2022-08-22T14:15:32.343Z,20.08
2022-08-22T14:18:15.321Z,20.21
2022-08-22T14:20:51.501Z,20.39
2022-08-22T14:23:29.441Z,20.48
2022-08-22T14:25:59.433Z,20.61
2022-08-22T14:28:32.947Z,20.52
2022-08-22T14:31:13.493Z,20.54
2022-08-22T14:33:49.546Z,20.60
2022-08-22T14:36:21.287Z,20.78
2022-08-22T14:38:56.772Z,20.74
2022-08-22T14:41:52.598Z,20.69
2022-08-22T14:44:28.540Z,20.44
2022-08-22T14:47:01.201Z,20.18
2022-08-22T14:55:30.581Z,19.74
2022-08-22T14:58:05.940Z,19.74
2022-08-22T15:00:38.393Z,19.68
2022-08-22T15:03:16.683Z,19.75
2022-08-22T15:05:51.986Z,19.92
2022-08-22T15:08:30.248Z,20.24
2022-08-22T15:11:25.625Z,20.61
2022-08-22T15:14:01.022Z,20.78
2022-08-22T15:16:35.038Z,20.95
2022-08-22T15:19:06.798Z,21.02
2022-08-22T15:21:36.942Z,21.11
2022-08-22T15:24:14.065Z,21.23
2022-08-22T15:26:52.463Z,21.22
2022-08-22T15:29:27.071Z,21.29
2022-08-22T15:32:05.522Z,21.27
2022-08-22T15:37:32.400Z,21.38
2022-08-22T15:40:14.024Z,21.30
2022-08-22T15:43:00.401Z,21.11
2022-08-22T15:45:33.705Z,21.18
2022-08-22T15:48:09.391Z,21.17
2022-08-22T15:50:43.280Z,21.15
2022-08-22T15:53:29.411Z,21.22
2022-08-22T15:56:27.345Z,21.31
2022-08-22T15:59:27.370Z,21.34
2022-08-22T16:02:13.685Z,21.35
2022-08-22T16:05:02.396Z,21.36
2022-08-22T16:07:44.079Z,21.29
2022-08-22T16:10:34.197Z,21.36
2022-08-22T16:13:38.126Z,21.25
2022-08-22T16:19:19.215Z,21.09
2022-08-22T16:22:35.809Z,21.12
2022-08-22T16:25:11.980Z,21.11
2022-08-22T16:27:55.854Z,21.17
2022-08-22T16:30:42.494Z,21.25
2022-08-22T16:36:39.240Z,20.79
2022-08-22T16:39:15.624Z,20.53
2022-08-22T16:41:46.379Z,20.58
2022-08-22T16:44:24.171Z,20.61
2022-08-22T16:46:56.614Z,20.61
2022-08-22T16:49:30.473Z,20.70
2022-08-22T16:52:35.585Z,20.64
2022-08-22T16:55:10.181Z,20.56
2022-08-22T16:58:06.084Z,20.54
2022-08-22T17:00:48.738Z,20.63
2022-08-22T17:03:34.230Z,20.71
2022-08-22T17:06:26.969Z,20.75
2022-08-22T17:09:14.913Z,20.81
2022-08-22T17:11:50.749Z,20.95
2022-08-22T17:14:41.613Z,20.90
2022-08-22T17:17:29.987Z,20.88
2022-08-22T17:20:32.761Z,20.87
2022-08-22T17:30:11.936Z,20.99
2022-08-22T17:33:00.571Z,20.97
2022-08-22T17:35:49.902Z,20.81
2022-08-22T17:38:36.692Z,20.78
2022-08-22T17:41:29.681Z,20.80
2022-08-22T17:44:19.180Z,20.70
2022-08-22T17:47:07.481Z,20.62
2022-08-22T17:52:44.663Z,20.71
2022-08-22T17:55:18.601Z,20.76
2022-08-22T17:57:55.416Z,20.75
2022-08-22T18:00:36.523Z,20.67
2022-08-22T18:03:10.035Z,20.63
2022-08-22T18:05:49.275Z,20.62
2022-08-22T18:11:25.496Z,20.41
2022-08-22T18:14:05.094Z,20.28
2022-08-22T18:16:51.022Z,20.32
2022-08-22T18:19:42.009Z,20.27
2022-08-22T18:26:04.376Z,20.04
2022-08-22T18:28:38.764Z,20.20
2022-08-22T18:34:33.449Z,20.19
2022-08-22T18:40:29.577Z,19.86
2022-08-22T18:43:14.704Z,20.02
2022-08-22T18:46:03.874Z,20.13
2022-08-22T18:51:41.286Z,20.22
2022-08-22T18:54:36.038Z,20.35
2022-08-22T19:00:13.309Z,20.34
2022-08-22T19:03:30.425Z,20.35
2022-08-22T19:06:37.932Z,20.37
2022-08-22T19:09:39.226Z,20.37
2022-08-22T19:12:21.348Z,20.34
2022-08-22T19:15:10.418Z,20.19
2022-08-22T19:18:10.505Z,20.13
2022-08-22T19:20:58.229Z,20.21
2022-08-22T19:23:49.344Z,20.16
2022-08-22T19:26:29.114Z,20.02
2022-08-22T19:29:00.846Z,19.77
2022-08-22T19:31:46.512Z,19.73
2022-08-22T19:34:22.321Z,19.73
2022-08-22T19:37:38.260Z,19.56
2022-08-22T19:40:14.323Z,19.56
2022-08-22T19:42:55.173Z,19.60
2022-08-22T19:45:29.440Z,19.79
2022-08-22T19:48:01.994Z,19.88
2022-08-22T19:50:39.641Z,20.01
2022-08-22T19:53:35.893Z,20.07
2022-08-22T19:56:23.558Z,19.97
2022-08-22T19:59:09.113Z,20.04
2022-08-22T20:01:46.776Z,20.11
2022-08-22T20:04:40.725Z,20.12
2022-08-22T20:07:24.239Z,20.17
2022-08-22T20:10:04.638Z,20.12
2022-08-22T20:12:55.189Z,20.01
2022-08-22T20:15:27.562Z,20.09
2022-08-22T20:18:12.127Z,20.10
2022-08-22T20:23:45.359Z,20.05
2022-08-22T20:26:20.538Z,19.98
2022-08-22T20:28:53.407Z,19.87
2022-08-22T20:31:24.074Z,19.70
2022-08-22T20:33:58.947Z,19.51
2022-08-22T20:36:29.399Z,19.43
2022-08-22T20:39:03.374Z,19.43
2022-08-22T20:41:38.775Z,19.44
2022-08-22T20:44:15.906Z,19.44
2022-08-22T20:46:53.774Z,19.33
2022-08-22T20:49:27.033Z,19.40
2022-08-22T20:51:59.670Z,19.43
2022-08-22T20:54:32.536Z,19.36
2022-08-22T20:57:03.384Z,19.31
2022-08-22T20:59:36.686Z,19.15
2022-08-22T21:02:10.320Z,19.18
2022-08-22T21:04:52.718Z,19.22
2022-08-22T21:07:23.269Z,19.28
2022-08-22T21:10:36.945Z,19.18
2022-08-22T21:13:08.973Z,19.36
2022-08-22T21:15:39.521Z,19.40
2022-08-22T21:18:09.327Z,19.50
2022-08-22T21:20:39.953Z,19.45
2022-08-22T21:23:20.804Z,19.48
2022-08-22T21:25:56.673Z,19.49
2022-08-22T21:28:34.086Z,19.46
2022-08-22T21:31:11.217Z,19.50
2022-08-22T21:33:43.308Z,19.36
2022-08-22T21:36:15.269Z,19.32
2022-08-22T21:38:49.776Z,19.32
2022-08-22T21:41:28.238Z,19.30
2022-08-22T21:43:56.875Z,19.37
2022-08-22T21:46:28.680Z,19.25
2022-08-22T21:49:01.111Z,19.21
2022-08-22T21:51:33.138Z,19.27
2022-08-22T21:54:20.876Z,19.09
2022-08-22T21:56:51.157Z,19.19
2022-08-22T21:59:52.142Z,19.15
2022-08-22T22:02:34.219Z,19.00
2022-08-22T22:05:09.550Z,18.94
2022-08-22T22:07:40.237Z,19.01
2022-08-22T22:10:10.804Z,18.85
2022-08-22T22:12:41.948Z,18.68
2022-08-22T22:15:13.459Z,18.51
2022-08-22T22:17:41.715Z,18.68
2022-08-22T22:20:11.281Z,18.72
2022-08-22T22:22:45.722Z,18.62
2022-08-22T22:25:39.825Z,18.75
2022-08-22T22:28:07.283Z,18.83
2022-08-22T22:30:35.928Z,18.84
2022-08-22T22:33:03.977Z,18.97
2022-08-22T22:35:32.775Z,19.00
2022-08-22T22:38:01.146Z,19.03
2022-08-22T22:40:29.371Z,18.94
2022-08-22T22:42:57.504Z,18.94
2022-08-22T22:45:26.988Z,18.85
2022-08-22T22:47:55.145Z,18.71
2022-08-22T22:50:23.255Z,18.81
2022-08-22T22:52:51.345Z,18.91
2022-08-22T22:55:24.929Z,19.06
2022-08-22T22:57:59.012Z,19.05
2022-08-22T23:00:30.803Z,19.09
2022-08-22T23:03:00.268Z,19.01
2022-08-22T23:05:28.791Z,19.02
2022-08-22T23:07:57.202Z,19.00
2022-08-22T23:10:25.539Z,18.94
2022-08-22T23:12:53.570Z,19.02
2022-08-22T23:15:21.620Z,19.08
2022-08-22T23:17:51.283Z,19.10
2022-08-22T23:20:19.935Z,19.05
2022-08-22T23:22:48.576Z,19.01
2022-08-22T23:25:16.673Z,18.90
2022-08-22T23:27:45.083Z,18.88
2022-08-22T23:30:20.279Z,18.90
2022-08-22T23:32:48.582Z,18.90
2022-08-22T23:35:18.249Z,18.91
2022-08-22T23:37:46.456Z,18.84
2022-08-22T23:40:14.510Z,18.79
2022-08-22T23:42:43.215Z,18.71
2022-08-22T23:45:11.387Z,18.72
2022-08-22T23:47:39.496Z,18.74
2022-08-22T23:50:07.814Z,18.56
2022-08-22T23:52:37.767Z,18.58
2022-08-22T23:55:06.696Z,18.69
2022-08-22T23:57:34.753Z,18.70
